createdAt,value
2022-10-09T00:00:51.084Z,26.95
2022-10-09T00:03:18.607Z,29.38
2022-10-09T00:05:46.377Z,34.20
2022-10-09T00:08:13.902Z,29.75
2022-10-09T00:10:42.433Z,35.00
2022-10-09T00:13:09.921Z,30.95
2022-10-09T00:15:41.791Z,35.15
2022-10-09T00:18:10.264Z,37.35
2022-10-09T00:20:38.693Z,36.03
2022-10-09T00:23:06.376Z,34.53
2022-10-09T00:25:34.556Z,28.73
2022-10-09T00:28:02.264Z,31.92
2022-10-09T00:30:30.003Z,32.33
2022-10-09T00:32:57.476Z,33.00
2022-10-09T00:35:24.867Z,26.92
2022-10-09T00:37:52.375Z,27.13
2022-10-09T00:40:20.736Z,35.10
2022-10-09T00:42:49.111Z,40.13
2022-10-09T00:45:20.695Z,38.83
2022-10-09T00:47:49.780Z,34.38
2022-10-09T00:50:22.488Z,32.38
2022-10-09T00:52:51.683Z,37.40
2022-10-09T00:55:19.616Z,31.52
2022-10-09T00:57:47.429Z,41.70
2022-10-09T01:00:15.693Z,39.08
2022-10-09T01:02:43.172Z,32.92
2022-10-09T01:05:11.574Z,35.80
2022-10-09T01:07:43.927Z,38.80
2022-10-09T01:10:30.292Z,32.92
2022-10-09T01:13:13.541Z,32.95
2022-10-09T01:15:49.465Z,34.25
2022-10-09T01:18:37.319Z,35.08
2022-10-09T01:21:07.756Z,42.15
2022-10-09T01:23:38.273Z,40.60
2022-10-09T01:26:10.578Z,52.00
2022-10-09T01:28:39.755Z,49.25
2022-10-09T01:31:08.146Z,62.33
2022-10-09T01:33:35.747Z,51.13
2022-10-09T01:36:03.656Z,55.50
2022-10-09T01:38:31.766Z,47.08
2022-10-09T01:40:59.533Z,37.97
2022-10-09T01:43:26.965Z,32.47
2022-10-09T01:46:14.405Z,49.95
2022-10-09T01:48:42.004Z,53.70
2022-10-09T01:51:09.646Z,52.78
2022-10-09T01:53:37.521Z,45.05
2022-10-09T01:56:13.823Z,45.97
2022-10-09T01:58:52.808Z,43.35
2022-10-09T02:01:27.239Z,36.75
2022-10-09T02:03:56.436Z,44.28
2022-10-09T02:06:24.249Z,31.60
2022-10-09T02:08:53.876Z,32.10
2022-10-09T02:11:21.780Z,29.10
2022-10-09T02:13:52.938Z,31.23
2022-10-09T02:16:38.958Z,28.60
2022-10-09T02:19:12.406Z,46.60
2022-10-09T02:21:52.486Z,38.53
2022-10-09T02:24:23.065Z,42.78
2022-10-09T02:26:51.460Z,39.03
2022-10-09T02:29:18.888Z,39.67
2022-10-09T02:31:46.279Z,31.90
2022-10-09T02:34:16.019Z,32.83
2022-10-09T02:36:43.471Z,37.17
2022-10-09T02:39:11.032Z,38.17
2022-10-09T02:41:38.543Z,35.50
2022-10-09T02:44:06.332Z,29.63
2022-10-09T02:46:34.461Z,30.33
2022-10-09T02:49:02.056Z,28.80
2022-10-09T02:51:29.532Z,27.27
2022-10-09T02:53:57.007Z,32.00
2022-10-09T02:56:24.409Z,28.30
2022-10-09T02:58:52.049Z,22.80
2022-10-09T03:01:19.528Z,25.00
2022-10-09T03:03:47.453Z,24.88
2022-10-09T03:06:16.034Z,32.85
2022-10-09T03:08:45.843Z,23.00
2022-10-09T03:11:14.263Z,23.55
2022-10-09T03:13:41.984Z,34.58
2022-10-09T03:16:11.673Z,32.65
2022-10-09T03:18:39.167Z,22.92
2022-10-09T03:21:10.265Z,27.98
2022-10-09T03:23:37.704Z,33.17
2022-10-09T03:26:07.873Z,41.80
2022-10-09T03:28:42.980Z,29.15
2022-10-09T03:33:50.105Z,37.63
2022-10-09T03:36:17.578Z,26.67
2022-10-09T03:38:45.029Z,19.38
2022-10-09T03:41:12.448Z,23.50
2022-10-09T03:43:39.831Z,23.80
2022-10-09T03:46:08.321Z,19.92
2022-10-09T03:48:36.641Z,19.63
2022-10-09T03:51:04.269Z,20.27
2022-10-09T03:53:31.970Z,18.95
2022-10-09T03:55:59.403Z,19.23
2022-10-09T03:58:27.060Z,21.85
2022-10-09T04:00:54.535Z,18.05
2022-10-09T04:03:22.488Z,17.70
2022-10-09T04:05:50.101Z,18.85
2022-10-09T04:08:17.684Z,19.13
2022-10-09T04:10:45.662Z,17.50
2022-10-09T04:13:13.044Z,19.35
2022-10-09T04:15:40.512Z,19.35
2022-10-09T04:18:08.495Z,20.65
2022-10-09T04:20:35.960Z,19.10
2022-10-09T04:23:03.319Z,17.48
2022-10-09T04:25:31.887Z,19.05
2022-10-09T04:27:59.285Z,14.80
2022-10-09T04:30:26.650Z,17.60
2022-10-09T04:32:54.042Z,15.43
2022-10-09T04:35:21.465Z,16.02
2022-10-09T04:37:48.832Z,18.17
2022-10-09T04:40:16.315Z,17.10
2022-10-09T04:42:43.710Z,18.55
2022-10-09T04:45:11.492Z,15.68
2022-10-09T04:47:38.871Z,16.38
2022-10-09T04:50:06.548Z,16.70
2022-10-09T04:52:34.075Z,16.40
2022-10-09T04:55:01.462Z,17.15
2022-10-09T04:57:28.884Z,32.63
2022-10-09T04:59:56.322Z,31.05
2022-10-09T05:02:23.833Z,30.35
2022-10-09T05:04:51.351Z,34.83
2022-10-09T05:07:18.813Z,22.63
2022-10-09T05:09:46.259Z,21.90
2022-10-09T05:12:13.720Z,21.52
2022-10-09T05:14:41.150Z,22.30
2022-10-09T05:17:14.237Z,22.02
2022-10-09T05:19:42.371Z,25.50
2022-10-09T05:22:09.777Z,18.70
2022-10-09T05:24:37.242Z,34.22
2022-10-09T05:27:04.783Z,34.05
2022-10-09T05:29:32.350Z,27.17
2022-10-09T05:31:59.883Z,29.05
2022-10-09T05:34:27.316Z,28.92
2022-10-09T05:36:54.756Z,16.67
2022-10-09T05:39:22.244Z,25.85
2022-10-09T05:41:49.728Z,23.35
2022-10-09T05:44:17.101Z,23.20
2022-10-09T05:46:44.561Z,18.45
2022-10-09T05:49:12.303Z,17.08
2022-10-09T05:51:42.790Z,17.58
2022-10-09T05:54:14.084Z,22.83
2022-10-09T05:56:42.489Z,18.50
2022-10-09T05:59:10.995Z,22.42
2022-10-09T06:01:39.710Z,20.13
2022-10-09T06:04:09.951Z,21.58
2022-10-09T06:06:38.595Z,19.88
2022-10-09T06:09:06.590Z,19.60
2022-10-09T06:11:35.408Z,20.90
2022-10-09T06:14:03.442Z,20.23
2022-10-09T06:16:35.604Z,25.30
2022-10-09T06:19:03.570Z,23.30
2022-10-09T06:21:30.976Z,21.70
2022-10-09T06:23:59.677Z,28.50
2022-10-09T06:26:29.418Z,24.67
2022-10-09T06:28:57.497Z,20.92
2022-10-09T06:31:28.816Z,20.33
2022-10-09T06:33:56.814Z,31.50
2022-10-09T06:36:28.282Z,28.88
2022-10-09T06:38:56.087Z,22.55
2022-10-09T06:41:26.950Z,21.33
2022-10-09T06:43:55.499Z,23.08
2022-10-09T06:46:24.818Z,23.75
2022-10-09T06:48:52.451Z,17.92
2022-10-09T06:51:20.916Z,16.50
2022-10-09T06:53:52.295Z,19.35
2022-10-09T06:56:20.517Z,18.42
2022-10-09T06:58:47.901Z,14.88
2022-10-09T07:01:24.295Z,15.30
2022-10-09T07:03:56.476Z,14.35
2022-10-09T07:06:33.855Z,15.13
2022-10-09T07:09:05.789Z,16.08
2022-10-09T07:11:34.762Z,16.15
2022-10-09T07:14:03.155Z,15.85
2022-10-09T07:16:34.491Z,13.80
2022-10-09T07:19:03.787Z,14.82
2022-10-09T07:21:31.152Z,14.55
2022-10-09T07:24:00.931Z,13.13
2022-10-09T07:26:29.502Z,13.27
2022-10-09T07:28:57.014Z,13.43
2022-10-09T07:31:24.486Z,13.65
2022-10-09T07:33:52.560Z,13.23
2022-10-09T07:36:20.130Z,12.73
2022-10-09T07:38:55.113Z,11.57
2022-10-09T07:41:23.393Z,10.88
2022-10-09T07:43:51.135Z,10.95
2022-10-09T07:46:19.831Z,12.35
2022-10-09T07:48:47.425Z,12.27
2022-10-09T07:51:19.173Z,11.98
2022-10-09T07:53:46.732Z,27.42
2022-10-09T07:56:24.808Z,16.83
2022-10-09T07:58:56.483Z,24.77
2022-10-09T08:01:24.402Z,19.40
2022-10-09T08:03:51.879Z,23.83
2022-10-09T08:06:19.775Z,13.60
2022-10-09T08:08:51.001Z,18.45
2022-10-09T08:11:19.447Z,18.98
2022-10-09T08:13:47.367Z,19.35
2022-10-09T08:16:15.410Z,16.95
2022-10-09T08:18:42.963Z,19.63
2022-10-09T08:21:12.758Z,13.73
2022-10-09T08:23:40.194Z,17.20
2022-10-09T08:26:17.802Z,18.80
2022-10-09T08:28:45.760Z,18.42
2022-10-09T08:31:17.937Z,11.90
2022-10-09T08:33:45.379Z,9.63
2022-10-09T08:36:15.328Z,9.98
2022-10-09T08:38:47.914Z,8.93
2022-10-09T08:41:28.556Z,10.32
2022-10-09T08:44:16.340Z,10.60
2022-10-09T08:46:46.814Z,8.68
2022-10-09T08:49:22.994Z,10.18
2022-10-09T08:51:51.048Z,10.98
2022-10-09T08:54:27.604Z,9.23
2022-10-09T08:56:55.059Z,9.75
2022-10-09T08:59:22.420Z,10.55
2022-10-09T09:01:52.760Z,10.23
2022-10-09T09:04:39.581Z,12.80
2022-10-09T09:07:07.027Z,15.30
2022-10-09T09:09:37.437Z,21.10
2022-10-09T09:12:09.331Z,12.60
2022-10-09T09:14:51.842Z,9.80
2022-10-09T09:17:54.989Z,20.58
2022-10-09T09:20:31.799Z,17.35
2022-10-09T09:23:01.410Z,15.02
2022-10-09T09:25:34.942Z,20.95
2022-10-09T09:28:12.607Z,21.77
2022-10-09T09:30:47.460Z,9.63
2022-10-09T09:33:20.433Z,10.75
2022-10-09T09:35:57.055Z,31.25
2022-10-09T09:38:24.663Z,24.95
2022-10-09T09:40:54.889Z,13.50
2022-10-09T09:43:23.509Z,10.65
2022-10-09T09:45:58.182Z,15.38
2022-10-09T09:51:10.361Z,9.88
2022-10-09T09:53:43.184Z,9.13
2022-10-09T09:56:10.756Z,8.65
2022-10-09T09:58:45.271Z,17.48
2022-10-09T10:01:24.039Z,8.88
2022-10-09T10:03:52.948Z,13.98
2022-10-09T10:06:31.106Z,16.20
2022-10-09T10:09:18.859Z,14.68
2022-10-09T10:11:48.203Z,9.50
2022-10-09T10:14:16.841Z,8.95
2022-10-09T10:16:44.894Z,9.23
2022-10-09T10:19:25.645Z,21.25
2022-10-09T10:21:58.109Z,7.25
2022-10-09T10:24:28.358Z,7.43
2022-10-09T10:27:04.942Z,6.80
2022-10-09T10:29:43.216Z,8.82
2022-10-09T10:32:18.402Z,5.43
2022-10-09T10:34:48.604Z,5.10
2022-10-09T10:37:16.044Z,5.53
2022-10-09T10:39:43.443Z,6.22
2022-10-09T10:42:15.883Z,4.65
2022-10-09T10:44:56.006Z,5.60
2022-10-09T10:47:26.228Z,6.45
2022-10-09T10:49:56.318Z,4.40
2022-10-09T10:52:30.507Z,6.80
2022-10-09T10:55:01.603Z,6.97
2022-10-09T10:57:39.623Z,5.03
2022-10-09T11:00:09.556Z,5.72
2022-10-09T11:02:57.303Z,8.35
2022-10-09T11:05:27.753Z,7.60
2022-10-09T11:07:59.183Z,5.55
2022-10-09T11:10:39.587Z,7.13
2022-10-09T11:13:18.658Z,5.55
2022-10-09T11:16:07.529Z,8.27
2022-10-09T11:18:53.511Z,7.57
2022-10-09T11:21:21.222Z,24.27
2022-10-09T11:23:54.444Z,17.90
2022-10-09T11:26:25.302Z,8.65
2022-10-09T11:28:54.572Z,7.68
2022-10-09T11:31:38.780Z,5.55
2022-10-09T11:34:12.182Z,6.50
2022-10-09T11:36:42.028Z,6.05
2022-10-09T11:39:13.942Z,6.97
2022-10-09T11:41:41.647Z,7.45
2022-10-09T11:44:28.142Z,6.22
2022-10-09T11:46:55.580Z,4.90
2022-10-09T11:49:22.980Z,6.28
2022-10-09T11:52:09.195Z,5.47
2022-10-09T11:54:36.930Z,6.10
2022-10-09T11:57:06.606Z,6.18
2022-10-09T11:59:36.471Z,6.28
2022-10-09T12:02:24.292Z,5.30
2022-10-09T12:04:55.579Z,5.32
2022-10-09T12:07:28.309Z,7.22
2022-10-09T12:10:01.584Z,5.78
2022-10-09T12:12:29.632Z,6.00
2022-10-09T12:14:57.068Z,5.57
2022-10-09T12:17:24.495Z,5.20
2022-10-09T12:20:00.796Z,5.93
2022-10-09T12:22:34.627Z,5.03
2022-10-09T12:25:14.229Z,5.00
2022-10-09T12:27:42.066Z,5.57
2022-10-09T12:30:15.501Z,4.90
2022-10-09T12:32:47.367Z,5.70
2022-10-09T12:35:23.392Z,6.63
2022-10-09T12:37:50.899Z,6.10
2022-10-09T12:40:23.024Z,5.18
2022-10-09T12:42:54.263Z,6.00
2022-10-09T12:45:23.572Z,5.68
2022-10-09T12:47:51.335Z,7.97
2022-10-09T12:50:28.356Z,11.38
2022-10-09T12:53:03.806Z,6.60
2022-10-09T12:55:32.948Z,6.55
2022-10-09T12:58:03.452Z,7.97
2022-10-09T13:00:32.793Z,6.60
2022-10-09T13:03:01.458Z,5.80
2022-10-09T13:05:41.921Z,6.70
2022-10-09T13:08:21.669Z,5.63
2022-10-09T13:10:49.146Z,5.93
2022-10-09T13:13:20.835Z,6.85
2022-10-09T13:15:58.697Z,6.38
2022-10-09T13:18:26.220Z,9.10
2022-10-09T13:21:31.468Z,5.68
2022-10-09T13:24:13.237Z,7.25
2022-10-09T13:26:43.463Z,8.23
2022-10-09T13:29:12.853Z,6.43
2022-10-09T13:31:43.685Z,6.95
2022-10-09T13:34:13.194Z,6.22
2022-10-09T13:36:40.772Z,6.63
2022-10-09T13:39:11.764Z,6.90
2022-10-09T13:41:39.303Z,5.25
2022-10-09T13:44:06.764Z,6.38
2022-10-09T13:46:34.231Z,6.35
2022-10-09T13:49:01.683Z,9.88
2022-10-09T13:51:29.503Z,7.57
2022-10-09T13:53:57.023Z,5.88
2022-10-09T13:56:24.547Z,7.05
2022-10-09T13:58:52.215Z,5.63
2022-10-09T14:01:19.963Z,6.72
2022-10-09T14:03:50.134Z,5.03
2022-10-09T14:06:17.778Z,5.35
2022-10-09T14:08:45.535Z,6.47
2022-10-09T14:11:12.979Z,9.38
2022-10-09T14:13:40.399Z,7.75
2022-10-09T14:16:08.175Z,14.27
2022-10-09T14:18:35.667Z,14.48
2022-10-09T14:21:13.950Z,8.52
2022-10-09T14:23:42.617Z,6.70
2022-10-09T14:26:10.580Z,8.18
2022-10-09T14:28:38.070Z,6.47
2022-10-09T14:31:06.450Z,6.15
2022-10-09T14:33:33.843Z,5.45
2022-10-09T14:36:13.191Z,6.93
2022-10-09T14:38:40.904Z,6.07
2022-10-09T14:41:09.159Z,7.53
2022-10-09T14:43:36.992Z,18.27
2022-10-09T14:46:05.503Z,8.50
2022-10-09T14:48:33.112Z,9.63
2022-10-09T14:51:07.433Z,9.25
2022-10-09T14:53:34.991Z,7.53
2022-10-09T14:56:06.569Z,7.65
2022-10-09T14:58:34.613Z,7.90
2022-10-09T15:01:04.537Z,6.70
2022-10-09T15:03:32.177Z,6.22
2022-10-09T15:06:00.834Z,6.78
2022-10-09T15:08:30.413Z,7.18
2022-10-09T15:10:57.955Z,32.65
2022-10-09T15:13:25.611Z,39.63
2022-10-09T15:15:53.082Z,13.35
2022-10-09T15:18:20.514Z,10.63
2022-10-09T15:20:49.585Z,11.73
2022-10-09T15:23:17.110Z,48.22
2022-10-09T15:25:51.502Z,17.75
2022-10-09T15:28:20.302Z,44.10
2022-10-09T15:30:49.470Z,37.78
2022-10-09T15:33:17.081Z,59.42
2022-10-09T15:35:46.374Z,23.35
2022-10-09T15:38:15.087Z,43.95
2022-10-09T15:40:45.194Z,13.93
2022-10-09T15:43:13.220Z,20.23
2022-10-09T15:45:41.173Z,31.67
2022-10-09T15:48:08.969Z,16.92
2022-10-09T15:50:37.356Z,17.88
2022-10-09T15:53:10.967Z,53.85
2022-10-09T15:55:38.725Z,40.40
2022-10-09T15:58:06.295Z,34.70
2022-10-09T16:00:40.837Z,44.08
2022-10-09T16:03:11.004Z,45.72
2022-10-09T16:05:43.693Z,48.28
2022-10-09T16:08:12.102Z,44.22
2022-10-09T16:10:49.077Z,49.67
2022-10-09T16:13:17.092Z,59.75
2022-10-09T16:15:45.863Z,39.03
2022-10-09T16:18:17.244Z,63.35
2022-10-09T16:20:44.825Z,64.32
2022-10-09T16:23:13.092Z,77.65
2022-10-09T16:25:41.094Z,45.78
2022-10-09T16:28:09.620Z,76.65
2022-10-09T16:30:42.904Z,37.72
2022-10-09T16:33:12.875Z,23.98
2022-10-09T16:35:40.543Z,24.02
2022-10-09T16:38:07.936Z,27.38
2022-10-09T16:41:00.992Z,30.98
2022-10-09T16:43:23.109Z,35.88
2022-10-09T16:45:53.096Z,38.97
2022-10-09T16:48:20.554Z,43.30
2022-10-09T16:50:48.024Z,48.90
2022-10-09T16:53:15.616Z,47.83
2022-10-09T16:55:43.019Z,45.88
2022-10-09T16:58:10.504Z,43.70
2022-10-09T17:00:37.951Z,47.28
2022-10-09T17:03:06.022Z,63.35
2022-10-09T17:05:38.443Z,68.80
2022-10-09T17:08:05.932Z,66.05
2022-10-09T17:10:33.372Z,64.47
2022-10-09T17:13:00.926Z,58.85
2022-10-09T17:15:29.121Z,60.05
2022-10-09T17:17:56.616Z,55.88
2022-10-09T17:20:33.006Z,44.53
2022-10-09T17:23:00.775Z,46.10
2022-10-09T17:25:28.924Z,59.50
2022-10-09T17:27:56.408Z,49.60
2022-10-09T17:30:25.392Z,46.83
2022-10-09T17:32:53.200Z,43.13
2022-10-09T17:35:20.866Z,42.47
2022-10-09T17:37:48.334Z,39.70
2022-10-09T17:40:15.900Z,33.60
2022-10-09T17:42:43.708Z,30.27
2022-10-09T17:45:11.224Z,37.80
2022-10-09T17:47:38.888Z,33.45
2022-10-09T17:50:06.819Z,34.05
2022-10-09T17:52:34.344Z,45.30
2022-10-09T17:55:01.768Z,66.60
2022-10-09T17:57:29.213Z,54.75
2022-10-09T17:59:56.660Z,54.70
2022-10-09T18:02:24.258Z,54.67
2022-10-09T18:04:57.259Z,46.33
2022-10-09T18:07:25.550Z,42.90
2022-10-09T18:09:53.097Z,50.40
2022-10-09T18:12:20.759Z,46.60
2022-10-09T18:14:48.376Z,42.35
2022-10-09T18:17:15.849Z,38.78
2022-10-09T18:19:43.281Z,35.83
2022-10-09T18:22:10.940Z,49.45
2022-10-09T18:24:38.446Z,40.65
2022-10-09T18:27:05.967Z,44.22
2022-10-09T18:29:33.358Z,42.42
2022-10-09T18:32:00.838Z,35.47
2022-10-09T18:34:28.338Z,34.08
2022-10-09T18:36:58.522Z,28.85
2022-10-09T18:39:26.012Z,36.30
2022-10-09T18:41:55.261Z,33.47
2022-10-09T18:44:24.189Z,31.02
2022-10-09T18:46:56.856Z,34.60
2022-10-09T18:49:26.199Z,36.63
2022-10-09T18:51:53.762Z,51.25
2022-10-09T18:54:22.130Z,58.88
2022-10-09T18:56:54.937Z,46.65
2022-10-09T18:59:23.145Z,29.90
2022-10-09T19:01:50.576Z,27.25
2022-10-09T19:04:19.107Z,30.05
2022-10-09T19:06:46.624Z,29.80
2022-10-09T19:09:14.245Z,49.25
2022-10-09T19:11:41.736Z,57.90
2022-10-09T19:14:09.156Z,40.78
2022-10-09T19:16:36.815Z,55.28
2022-10-09T19:19:04.349Z,67.50
2022-10-09T19:21:32.240Z,49.28
2022-10-09T19:24:08.682Z,55.83
2022-10-09T19:26:36.278Z,35.38
2022-10-09T19:29:04.210Z,34.00
2022-10-09T19:31:32.304Z,48.08
2022-10-09T19:34:04.483Z,35.50
2022-10-09T19:36:36.891Z,38.20
2022-10-09T19:39:05.040Z,27.77
2022-10-09T19:41:32.441Z,30.25
2022-10-09T19:44:00.378Z,19.90
2022-10-09T19:46:28.375Z,15.48
2022-10-09T19:48:55.990Z,13.95
2022-10-09T19:51:24.679Z,14.65
2022-10-09T19:53:53.557Z,17.50
2022-10-09T19:56:22.494Z,16.83
2022-10-09T19:58:50.585Z,14.35
2022-10-09T20:01:19.727Z,21.98
2022-10-09T20:03:53.942Z,17.45
2022-10-09T20:06:23.124Z,18.75
2022-10-09T20:08:51.017Z,13.30
2022-10-09T20:11:20.523Z,12.35
2022-10-09T20:13:52.079Z,12.20
2022-10-09T20:16:23.119Z,11.15
2022-10-09T20:19:12.037Z,11.35
2022-10-09T20:21:40.238Z,38.28
2022-10-09T20:24:15.559Z,51.42
2022-10-09T20:26:43.431Z,29.67
2022-10-09T20:29:10.995Z,57.22
2022-10-09T20:31:46.155Z,18.35
2022-10-09T20:34:23.530Z,15.32
2022-10-09T20:36:51.261Z,105.95
2022-10-09T20:39:19.746Z,18.80
2022-10-09T20:41:56.716Z,47.38
2022-10-09T20:44:32.223Z,26.52
2022-10-09T20:47:05.467Z,15.63
2022-10-09T20:49:32.932Z,11.00
2022-10-09T20:52:00.291Z,36.50
2022-10-09T20:54:27.780Z,59.42
2022-10-09T20:56:55.299Z,58.25
2022-10-09T20:59:22.925Z,46.75
2022-10-09T21:01:50.371Z,14.88
2022-10-09T21:04:17.940Z,11.65
2022-10-09T21:06:45.534Z,17.42
2022-10-09T21:09:13.051Z,20.55
2022-10-09T21:11:41.744Z,9.30
2022-10-09T21:14:10.638Z,8.35
2022-10-09T21:16:40.641Z,8.32
2022-10-09T21:19:08.647Z,8.30
2022-10-09T21:21:36.369Z,9.10
2022-10-09T21:24:04.289Z,8.43
2022-10-09T21:26:35.939Z,7.80
2022-10-09T21:29:07.045Z,8.40
2022-10-09T21:31:35.233Z,9.77
2022-10-09T21:34:02.918Z,9.15
2022-10-09T21:36:51.023Z,10.43
2022-10-09T21:39:27.426Z,10.18
2022-10-09T21:41:55.106Z,10.20
2022-10-09T21:44:22.618Z,9.77
2022-10-09T21:46:49.996Z,10.40
2022-10-09T21:49:22.129Z,11.20
2022-10-09T21:51:49.592Z,10.02
2022-10-09T21:54:17.322Z,11.07
2022-10-09T21:56:44.790Z,9.20
2022-10-09T21:59:12.243Z,9.73
2022-10-09T22:01:39.709Z,9.57
2022-10-09T22:04:07.099Z,10.10
2022-10-09T22:06:34.560Z,10.05
2022-10-09T22:09:01.974Z,10.75
2022-10-09T22:11:29.451Z,10.23
2022-10-09T22:13:57.098Z,10.27
2022-10-09T22:16:24.536Z,9.77
2022-10-09T22:18:51.917Z,9.77
2022-10-09T22:21:19.486Z,16.33
2022-10-09T22:23:47.100Z,22.58
2022-10-09T22:26:17.108Z,17.77
2022-10-09T22:28:47.683Z,15.63
2022-10-09T22:31:18.034Z,13.52
2022-10-09T22:33:49.796Z,10.05
2022-10-09T22:36:18.141Z,9.82
2022-10-09T22:38:45.697Z,9.18
2022-10-09T22:41:14.093Z,8.38
2022-10-09T22:43:41.767Z,9.88
2022-10-09T22:46:16.956Z,8.85
2022-10-09T22:48:44.897Z,9.25
2022-10-09T22:51:13.956Z,9.60
2022-10-09T22:53:42.274Z,9.93
2022-10-09T22:56:17.321Z,10.30
2022-10-09T22:58:45.290Z,9.55
2022-10-09T23:01:14.541Z,7.80
2022-10-09T23:03:42.145Z,8.35
2022-10-09T23:06:10.595Z,8.15
2022-10-09T23:08:38.903Z,7.55
2022-10-09T23:11:06.771Z,8.02
2022-10-09T23:13:34.204Z,8.32
2022-10-09T23:16:02.068Z,8.75
2022-10-09T23:18:30.691Z,8.45
2022-10-09T23:20:58.373Z,8.10
2022-10-09T23:23:25.875Z,8.85
2022-10-09T23:25:53.263Z,8.05
2022-10-09T23:28:21.827Z,8.95
2022-10-09T23:30:49.590Z,8.48
2022-10-09T23:33:17.055Z,8.43
2022-10-09T23:35:44.665Z,8.75
2022-10-09T23:38:12.084Z,8.93
2022-10-09T23:40:39.461Z,8.40
2022-10-09T23:43:06.890Z,9.27
2022-10-09T23:45:36.542Z,8.57
2022-10-09T23:48:04.090Z,9.20
2022-10-09T23:50:31.611Z,9.13
2022-10-09T23:52:59.024Z,9.32
2022-10-09T23:55:26.456Z,9.60
2022-10-09T23:57:53.845Z,9.25
